createdAt,value
2022-08-17T00:02:07.623Z,22.82
2022-08-17T00:04:50.462Z,22.74
2022-08-17T00:07:17.148Z,22.77
2022-08-17T00:09:43.841Z,22.70
2022-08-17T00:12:43.611Z,22.67
2022-08-17T00:14:59.927Z,22.60
2022-08-17T00:17:26.598Z,22.58
2022-08-17T00:19:53.035Z,22.52
2022-08-17T00:22:34.726Z,22.58
2022-08-17T00:25:07.152Z,22.60
2022-08-17T00:27:33.714Z,22.62
2022-08-17T00:30:00.307Z,22.64
2022-08-17T00:33:12.433Z,22.63
2022-08-17T00:35:22.145Z,22.52
2022-08-17T00:37:49.018Z,22.41
2022-08-17T00:40:15.740Z,22.48
2022-08-17T00:42:45.839Z,22.47
2022-08-17T00:45:15.316Z,22.41
2022-08-17T00:47:43.581Z,22.39
2022-08-17T00:50:13.655Z,22.36
2022-08-17T00:52:47.737Z,22.35
2022-08-17T00:55:14.894Z,22.34
2022-08-17T00:57:52.205Z,22.34
2022-08-17T01:05:27.106Z,22.37
2022-08-17T01:07:55.705Z,22.34
2022-08-17T01:10:59.306Z,22.32
2022-08-17T01:13:16.349Z,22.35
2022-08-17T01:15:50.451Z,22.33
2022-08-17T01:18:17.241Z,22.26
2022-08-17T01:20:55.080Z,22.27
2022-08-17T01:23:24.080Z,22.26
2022-08-17T01:25:55.259Z,22.24
2022-08-17T01:28:52.750Z,22.21
2022-08-17T01:31:10.040Z,22.12
2022-08-17T01:33:37.468Z,22.17
2022-08-17T01:36:07.106Z,22.19
2022-08-17T01:38:36.120Z,22.20
2022-08-17T01:41:11.970Z,22.20
2022-08-17T01:43:45.226Z,22.18
2022-08-17T01:46:18.781Z,22.17
2022-08-17T01:48:47.387Z,22.12
2022-08-17T01:51:15.881Z,22.11
2022-08-17T01:53:47.224Z,22.15
2022-08-17T01:56:16.969Z,22.16
2022-08-17T01:58:43.971Z,22.23
2022-08-17T02:01:12.447Z,22.26
2022-08-17T02:03:38.815Z,22.18
2022-08-17T02:06:27.196Z,22.14
2022-08-17T02:09:03.073Z,22.11
2022-08-17T02:11:33.165Z,22.17
2022-08-17T02:14:03.420Z,22.12
2022-08-17T02:16:36.828Z,22.08
2022-08-17T02:19:07.553Z,22.03
2022-08-17T02:21:34.625Z,21.95
2022-08-17T02:24:01.253Z,21.88
2022-08-17T02:26:28.075Z,21.78
2022-08-17T02:28:54.744Z,21.72
2022-08-17T02:31:21.272Z,21.61
2022-08-17T02:33:56.558Z,21.55
2022-08-17T02:36:29.963Z,21.58
2022-08-17T02:38:56.970Z,21.48
2022-08-17T02:41:23.443Z,21.38
2022-08-17T02:43:49.828Z,21.41
2022-08-17T02:46:16.208Z,21.44
2022-08-17T02:48:42.580Z,21.49
2022-08-17T02:51:09.653Z,21.49
2022-08-17T02:53:36.332Z,21.52
2022-08-17T02:56:02.970Z,21.50
2022-08-17T02:58:34.806Z,21.47
2022-08-17T03:01:06.887Z,21.41
2022-08-17T03:03:34.078Z,21.45
2022-08-17T03:06:01.189Z,21.49
2022-08-17T03:08:27.773Z,21.51
2022-08-17T03:10:54.389Z,21.56
2022-08-17T03:13:20.939Z,21.56
2022-08-17T03:15:48.382Z,21.55
2022-08-17T03:18:24.144Z,21.63
2022-08-17T03:20:55.338Z,21.64
2022-08-17T03:23:24.331Z,21.60
2022-08-17T03:25:53.824Z,21.61
2022-08-17T03:28:22.100Z,21.61
2022-08-17T03:30:49.292Z,21.60
2022-08-17T03:33:16.770Z,21.54
2022-08-17T03:35:44.028Z,21.55
2022-08-17T03:38:12.477Z,21.52
2022-08-17T03:40:56.648Z,21.53
2022-08-17T03:43:31.455Z,21.52
2022-08-17T03:46:27.753Z,21.42
2022-08-17T03:49:18.091Z,21.47
2022-08-17T03:52:02.793Z,21.46
2022-08-17T03:54:47.809Z,21.37
2022-08-17T03:57:14.598Z,21.21
2022-08-17T03:59:41.389Z,21.08
2022-08-17T04:02:11.374Z,21.12
2022-08-17T04:04:39.218Z,21.11
2022-08-17T04:07:06.482Z,21.10
2022-08-17T04:09:33.796Z,21.09
2022-08-17T04:12:02.383Z,21.06
2022-08-17T04:14:36.116Z,21.06
2022-08-17T04:17:15.866Z,21.11
2022-08-17T04:19:43.641Z,21.08
2022-08-17T04:22:10.493Z,20.97
2022-08-17T04:24:57.003Z,20.93
2022-08-17T04:27:25.125Z,20.88
2022-08-17T04:29:55.620Z,20.87
2022-08-17T04:32:59.390Z,20.85
2022-08-17T04:35:09.519Z,20.80
2022-08-17T04:37:35.904Z,20.71
2022-08-17T04:40:21.877Z,20.68
2022-08-17T04:43:01.273Z,20.72
2022-08-17T04:45:31.946Z,20.68
2022-08-17T04:47:59.805Z,20.68
2022-08-17T04:50:26.657Z,20.65
2022-08-17T04:52:53.068Z,20.67
2022-08-17T04:55:19.623Z,20.66
2022-08-17T04:57:46.210Z,20.64
2022-08-17T05:00:13.447Z,20.63
2022-08-17T05:02:50.995Z,20.67
2022-08-17T05:05:20.763Z,20.65
2022-08-17T05:07:47.541Z,20.59
2022-08-17T05:10:13.928Z,20.57
2022-08-17T05:12:40.350Z,20.51
2022-08-17T05:15:12.070Z,20.55
2022-08-17T05:17:38.471Z,20.54
2022-08-17T05:20:05.369Z,20.57
2022-08-17T05:22:31.741Z,20.60
2022-08-17T05:24:58.124Z,20.62
2022-08-17T05:27:24.783Z,20.61
2022-08-17T05:29:56.494Z,20.54
2022-08-17T05:32:39.111Z,20.55
2022-08-17T05:35:07.342Z,20.56
2022-08-17T05:37:33.746Z,20.54
2022-08-17T05:40:00.282Z,20.47
2022-08-17T05:42:26.841Z,20.43
2022-08-17T05:44:57.313Z,20.47
2022-08-17T05:47:25.165Z,20.43
2022-08-17T05:49:51.726Z,20.45
2022-08-17T05:52:38.965Z,20.48
2022-08-17T05:55:22.739Z,20.45
2022-08-17T05:57:59.907Z,20.40
2022-08-17T06:00:32.995Z,20.38
2022-08-17T06:03:27.210Z,20.34
2022-08-17T06:06:14.920Z,20.25
2022-08-17T06:08:52.920Z,20.27
2022-08-17T06:11:25.200Z,20.27
2022-08-17T06:14:15.989Z,20.26
2022-08-17T06:16:46.224Z,20.29
2022-08-17T06:19:23.484Z,20.35
2022-08-17T06:21:53.930Z,20.41
2022-08-17T06:24:38.996Z,20.40
2022-08-17T06:27:30.331Z,20.45
2022-08-17T06:30:12.566Z,20.43
2022-08-17T06:32:42.695Z,20.50
2022-08-17T06:35:27.788Z,20.60
2022-08-17T06:38:04.152Z,20.63
2022-08-17T06:40:50.798Z,20.69
2022-08-17T06:43:26.183Z,20.77
2022-08-17T06:45:59.435Z,20.82
2022-08-17T06:48:33.644Z,20.80
2022-08-17T06:51:07.393Z,20.77
2022-08-17T06:53:42.629Z,20.79
2022-08-17T06:56:13.571Z,20.82
2022-08-17T06:58:43.260Z,20.81
2022-08-17T07:01:15.060Z,20.81
2022-08-17T07:03:45.554Z,20.82
2022-08-17T07:06:18.482Z,20.83
2022-08-17T07:08:54.742Z,20.84
2022-08-17T07:11:30.302Z,20.85
2022-08-17T07:14:05.664Z,20.83
2022-08-17T07:16:41.221Z,20.84
2022-08-17T07:19:10.955Z,20.82
2022-08-17T07:21:54.996Z,20.86
2022-08-17T07:24:41.433Z,20.87
2022-08-17T07:27:35.332Z,20.84
2022-08-17T07:30:10.658Z,20.85
2022-08-17T07:33:14.480Z,20.90
2022-08-17T07:35:44.175Z,20.90
2022-08-17T07:38:25.506Z,20.90
2022-08-17T07:41:02.981Z,20.86
2022-08-17T07:43:37.280Z,20.79
2022-08-17T07:46:37.938Z,20.77
2022-08-17T07:49:07.598Z,20.75
2022-08-17T07:51:45.644Z,20.73
2022-08-17T07:54:15.096Z,20.69
2022-08-17T07:56:53.475Z,20.69
2022-08-17T07:59:27.247Z,20.67
2022-08-17T08:02:21.725Z,20.68
2022-08-17T08:05:12.945Z,20.70
2022-08-17T08:07:49.008Z,20.71
2022-08-17T08:10:45.062Z,20.73
2022-08-17T08:13:24.006Z,20.76
2022-08-17T08:15:54.602Z,20.75
2022-08-17T08:18:53.636Z,20.73
2022-08-17T08:21:39.818Z,20.70
2022-08-17T08:24:20.358Z,20.71
2022-08-17T08:27:27.052Z,20.71
2022-08-17T08:30:08.708Z,20.69
2022-08-17T08:32:54.037Z,20.76
2022-08-17T08:35:41.654Z,20.83
2022-08-17T08:38:30.809Z,20.81
2022-08-17T08:41:16.321Z,20.89
2022-08-17T08:43:53.196Z,21.01
2022-08-17T08:46:25.883Z,21.12
2022-08-17T08:49:11.978Z,21.18
2022-08-17T08:51:55.748Z,21.27
2022-08-17T08:54:47.517Z,21.27
2022-08-17T08:57:26.914Z,21.28
2022-08-17T09:00:13.239Z,21.20
2022-08-17T09:03:14.085Z,21.16
2022-08-17T09:06:33.270Z,21.07
2022-08-17T09:09:09.262Z,20.97
2022-08-17T09:12:02.045Z,20.82
2022-08-17T09:14:44.953Z,20.73
2022-08-17T09:17:19.285Z,20.73
2022-08-17T09:20:01.461Z,20.82
2022-08-17T09:22:42.665Z,20.88
2022-08-17T09:25:13.789Z,20.92
2022-08-17T09:27:47.578Z,20.97
2022-08-17T09:30:15.312Z,21.03
2022-08-17T09:32:44.790Z,21.02
2022-08-17T09:35:37.170Z,21.01
2022-08-17T09:38:22.530Z,20.94
2022-08-17T09:41:13.324Z,20.90
2022-08-17T09:44:03.052Z,20.83
2022-08-17T09:46:33.122Z,20.75
2022-08-17T09:49:09.935Z,20.70
2022-08-17T09:51:47.290Z,20.51
2022-08-17T09:54:44.678Z,20.37
2022-08-17T09:57:42.011Z,20.24
2022-08-17T10:00:17.807Z,20.15
2022-08-17T10:03:05.614Z,20.07
2022-08-17T10:05:42.771Z,20.09
2022-08-17T10:08:43.117Z,20.12
2022-08-17T10:11:45.670Z,20.20
2022-08-17T10:14:36.442Z,20.35
2022-08-17T10:17:27.918Z,20.62
2022-08-17T10:20:03.750Z,20.80
2022-08-17T10:22:58.674Z,20.86
2022-08-17T10:25:59.773Z,21.10
2022-08-17T10:28:31.993Z,21.31
2022-08-17T10:31:34.155Z,21.29
2022-08-17T10:34:11.195Z,21.14
2022-08-17T10:37:08.761Z,21.13
2022-08-17T10:39:50.373Z,21.17
2022-08-17T10:42:32.789Z,21.14
2022-08-17T10:45:06.932Z,21.18
2022-08-17T10:48:05.789Z,21.26
2022-08-17T10:50:42.583Z,21.28
2022-08-17T10:53:09.629Z,21.31
2022-08-17T10:55:36.406Z,21.28
2022-08-17T10:58:24.376Z,21.25
2022-08-17T11:00:53.484Z,21.07
2022-08-17T11:03:24.652Z,21.06
2022-08-17T11:06:14.486Z,21.17
2022-08-17T11:09:08.083Z,21.20
2022-08-17T11:11:53.576Z,21.21
2022-08-17T11:14:41.402Z,21.15
2022-08-17T11:17:20.724Z,21.06
2022-08-17T11:20:12.929Z,21.03
2022-08-17T11:23:14.636Z,20.98
2022-08-17T11:25:46.939Z,21.03
2022-08-17T11:28:24.826Z,21.04
2022-08-17T11:31:01.612Z,21.00
2022-08-17T11:33:36.778Z,21.01
2022-08-17T11:36:26.065Z,20.97
2022-08-17T11:39:18.616Z,20.98
2022-08-17T11:41:57.140Z,20.97
2022-08-17T11:44:37.626Z,20.97
2022-08-17T11:47:32.819Z,20.93
2022-08-17T11:50:50.872Z,20.86
2022-08-17T11:53:37.227Z,20.66
2022-08-17T11:56:09.588Z,20.49
2022-08-17T11:58:42.030Z,20.32
2022-08-17T12:01:29.383Z,20.21
2022-08-17T12:04:16.255Z,20.15
2022-08-17T12:06:50.263Z,20.08
2022-08-17T12:09:26.604Z,20.12
2022-08-17T12:12:13.431Z,20.17
2022-08-17T12:17:41.471Z,20.07
2022-08-17T12:20:28.519Z,20.09
2022-08-17T12:23:09.656Z,20.07
2022-08-17T12:25:39.426Z,19.96
2022-08-17T12:28:22.238Z,20.01
2022-08-17T12:30:54.663Z,20.10
2022-08-17T12:33:27.936Z,20.05
2022-08-17T12:36:03.040Z,20.08
2022-08-17T12:38:35.128Z,20.12
2022-08-17T12:41:24.430Z,20.15
2022-08-17T12:44:02.753Z,20.19
2022-08-17T12:46:33.637Z,20.17
2022-08-17T12:49:22.584Z,20.21
2022-08-17T12:51:51.032Z,20.20
2022-08-17T12:54:26.135Z,20.19
2022-08-17T12:56:53.114Z,20.18
2022-08-17T12:59:29.935Z,20.15
2022-08-17T13:01:57.416Z,20.19
2022-08-17T13:04:24.132Z,20.23
2022-08-17T13:07:00.130Z,20.29
2022-08-17T13:09:35.449Z,20.32
2022-08-17T13:12:02.854Z,20.35
2022-08-17T13:14:31.614Z,20.39
2022-08-17T13:17:02.348Z,20.40
2022-08-17T13:19:40.385Z,20.47
2022-08-17T13:22:12.604Z,20.42
2022-08-17T13:24:53.108Z,20.41
2022-08-17T13:27:21.875Z,20.40
2022-08-17T13:29:53.469Z,20.39
2022-08-17T13:32:30.254Z,20.34
2022-08-17T13:35:14.172Z,20.30
2022-08-17T13:37:58.428Z,20.33
2022-08-17T13:40:29.915Z,20.33
2022-08-17T13:42:57.436Z,20.32
2022-08-17T13:45:39.586Z,20.24
2022-08-17T13:48:14.499Z,20.21
2022-08-17T13:50:56.547Z,20.19
2022-08-17T13:53:32.860Z,20.11
2022-08-17T13:56:36.923Z,20.18
2022-08-17T13:59:36.354Z,20.22
2022-08-17T14:02:16.844Z,20.18
2022-08-17T14:04:45.602Z,20.20
2022-08-17T14:07:12.464Z,20.24
2022-08-17T14:09:47.033Z,20.31
2022-08-17T14:12:16.273Z,20.33
2022-08-17T14:14:44.491Z,20.36
2022-08-17T14:17:12.235Z,20.36
2022-08-17T14:19:39.628Z,20.40
2022-08-17T14:22:09.696Z,20.42
2022-08-17T14:24:44.586Z,20.46
2022-08-17T14:27:12.025Z,20.52
2022-08-17T14:29:40.972Z,20.61
2022-08-17T14:32:19.281Z,20.63
2022-08-17T14:34:46.666Z,20.67
2022-08-17T14:37:13.458Z,20.76
2022-08-17T14:39:41.196Z,20.84
2022-08-17T14:42:09.297Z,20.85
2022-08-17T14:44:36.155Z,20.89
2022-08-17T14:47:04.200Z,21.02
2022-08-17T14:49:35.977Z,21.08
2022-08-17T14:52:02.843Z,21.07
2022-08-17T14:54:34.326Z,21.05
2022-08-17T14:57:22.730Z,21.01
2022-08-17T14:59:53.203Z,20.96
2022-08-17T15:02:30.128Z,20.90
2022-08-17T15:05:04.035Z,20.95
2022-08-17T15:07:31.409Z,20.97
2022-08-17T15:10:02.055Z,20.97
2022-08-17T15:12:34.636Z,20.95
2022-08-17T15:15:05.066Z,20.93
2022-08-17T15:17:44.485Z,20.88
2022-08-17T15:20:24.627Z,20.86
2022-08-17T15:22:55.187Z,20.91
2022-08-17T15:25:22.754Z,20.92
2022-08-17T15:27:49.395Z,20.92
2022-08-17T15:30:16.349Z,20.91
2022-08-17T15:32:51.282Z,20.91
2022-08-17T15:35:27.244Z,20.94
2022-08-17T15:38:10.545Z,20.96
2022-08-17T15:40:44.439Z,21.02
2022-08-17T15:43:14.775Z,21.07
2022-08-17T15:45:41.259Z,21.10
2022-08-17T15:48:07.804Z,21.24
2022-08-17T15:50:34.733Z,21.44
2022-08-17T15:53:01.912Z,21.54
2022-08-17T15:55:30.332Z,21.60
2022-08-17T15:57:56.789Z,21.61
2022-08-17T16:00:28.277Z,21.61
2022-08-17T16:03:13.615Z,21.56
2022-08-17T16:05:42.701Z,21.60
2022-08-17T16:08:10.880Z,21.64
2022-08-17T16:10:37.355Z,21.64
2022-08-17T16:13:04.439Z,21.68
2022-08-17T16:15:31.912Z,21.66
2022-08-17T16:17:59.208Z,21.63
2022-08-17T16:20:25.997Z,21.65
2022-08-17T16:22:54.221Z,21.69
2022-08-17T16:25:51.929Z,21.75
2022-08-17T16:28:15.636Z,21.80
2022-08-17T16:30:42.803Z,21.77
2022-08-17T16:33:14.983Z,21.70
2022-08-17T16:35:42.097Z,21.63
2022-08-17T16:38:09.436Z,21.56
2022-08-17T16:40:36.399Z,21.49
2022-08-17T16:43:03.922Z,21.47
2022-08-17T16:45:36.699Z,21.42
2022-08-17T16:48:03.725Z,21.38
2022-08-17T16:50:30.236Z,21.39
2022-08-17T16:53:06.558Z,21.39
2022-08-17T16:55:35.577Z,21.30
2022-08-17T16:58:04.396Z,21.28
2022-08-17T17:00:31.385Z,21.27
2022-08-17T17:03:19.203Z,21.22
2022-08-17T17:06:01.565Z,21.18
2022-08-17T17:08:34.658Z,21.17
2022-08-17T17:11:10.226Z,21.17
2022-08-17T17:13:54.206Z,21.19
2022-08-17T17:16:29.405Z,21.16
2022-08-17T17:19:09.074Z,21.11
2022-08-17T17:21:49.697Z,21.12
2022-08-17T17:24:51.676Z,21.13
2022-08-17T17:27:30.309Z,21.12
2022-08-17T17:30:11.026Z,21.09
2022-08-17T17:32:55.661Z,21.08
2022-08-17T17:35:45.154Z,21.05
2022-08-17T17:38:16.984Z,21.04
2022-08-17T17:40:51.129Z,21.02
2022-08-17T17:43:38.501Z,21.00
2022-08-17T17:46:27.504Z,20.98
2022-08-17T17:48:56.916Z,20.94
2022-08-17T17:51:58.155Z,20.95
2022-08-17T17:54:37.283Z,20.94
2022-08-17T17:57:24.482Z,20.92
2022-08-17T18:00:15.450Z,20.97
2022-08-17T18:03:03.512Z,20.95
2022-08-17T18:05:45.152Z,20.93
2022-08-17T18:08:19.355Z,20.94
2022-08-17T18:10:56.634Z,20.91
2022-08-17T18:13:37.000Z,20.91
2022-08-17T18:16:06.672Z,20.89
2022-08-17T18:18:44.317Z,20.88
2022-08-17T18:21:21.074Z,20.84
2022-08-17T18:23:59.001Z,20.84
2022-08-17T18:26:40.140Z,20.80
2022-08-17T18:29:25.555Z,20.77
2022-08-17T18:32:10.719Z,20.78
2022-08-17T18:34:47.341Z,20.74
2022-08-17T18:37:31.067Z,20.74
2022-08-17T18:39:57.528Z,20.70
2022-08-17T18:42:28.921Z,20.71
2022-08-17T18:44:55.991Z,20.68
2022-08-17T18:47:25.679Z,20.70
2022-08-17T18:49:58.609Z,20.72
2022-08-17T18:52:29.429Z,20.71
2022-08-17T18:55:19.864Z,20.74
2022-08-17T18:57:52.728Z,20.71
2022-08-17T19:00:39.349Z,20.71
2022-08-17T19:03:18.047Z,20.72
2022-08-17T19:05:48.611Z,20.70
2022-08-17T19:08:18.308Z,20.64
2022-08-17T19:10:47.420Z,20.61
2022-08-17T19:13:24.906Z,20.63
2022-08-17T19:16:11.682Z,20.63
2022-08-17T19:18:52.688Z,20.61
2022-08-17T19:21:23.855Z,20.50
2022-08-17T19:24:09.601Z,20.49
2022-08-17T19:26:54.160Z,20.50
2022-08-17T19:29:28.459Z,20.48
2022-08-17T19:31:56.863Z,20.46
2022-08-17T19:34:30.203Z,20.49
2022-08-17T19:37:06.797Z,20.51
2022-08-17T19:39:51.586Z,20.52
2022-08-17T19:42:47.169Z,20.52
2022-08-17T19:45:47.868Z,20.48
2022-08-17T19:48:41.737Z,20.43
2022-08-17T19:51:13.964Z,20.42
2022-08-17T19:54:06.630Z,20.41
2022-08-17T19:56:45.338Z,20.37
2022-08-17T19:59:16.122Z,20.32
2022-08-17T20:01:47.004Z,20.21
2022-08-17T20:04:35.691Z,20.20
2022-08-17T20:07:19.073Z,20.09
2022-08-17T20:09:56.606Z,20.03
2022-08-17T20:12:30.480Z,19.96
2022-08-17T20:15:06.584Z,19.87
2022-08-17T20:17:45.750Z,19.83
2022-08-17T20:20:21.464Z,19.82
2022-08-17T20:22:59.507Z,19.77
2022-08-17T20:25:36.156Z,19.69
2022-08-17T20:28:22.258Z,19.65
2022-08-17T20:30:49.155Z,19.62
2022-08-17T20:33:36.667Z,19.60
2022-08-17T20:36:16.273Z,19.57
2022-08-17T20:38:44.642Z,19.58
2022-08-17T20:41:14.782Z,19.55
2022-08-17T20:43:46.770Z,19.49
2022-08-17T20:46:41.496Z,19.53
2022-08-17T20:49:10.972Z,19.39
2022-08-17T20:52:01.255Z,19.41
2022-08-17T20:54:45.390Z,19.33
2022-08-17T20:57:31.218Z,19.33
2022-08-17T21:00:30.789Z,19.40
2022-08-17T21:03:26.721Z,19.38
2022-08-17T21:06:00.026Z,19.36
2022-08-17T21:08:53.158Z,19.36
2022-08-17T21:12:02.890Z,19.33
2022-08-17T21:14:36.677Z,19.26
2022-08-17T21:17:29.737Z,19.26
2022-08-17T21:20:11.462Z,19.27
2022-08-17T21:23:00.042Z,19.25
2022-08-17T21:25:39.873Z,19.19
2022-08-17T21:28:14.923Z,19.07
2022-08-17T21:31:29.287Z,19.04
2022-08-17T21:34:15.144Z,19.06
2022-08-17T21:36:43.617Z,19.01
2022-08-17T21:39:14.898Z,19.03
2022-08-17T21:41:55.828Z,19.08
2022-08-17T21:44:34.990Z,19.14
2022-08-17T21:47:18.632Z,19.14
2022-08-17T21:49:45.236Z,19.08
2022-08-17T21:52:17.873Z,19.08
2022-08-17T21:54:54.610Z,19.07
2022-08-17T21:57:27.227Z,19.04
2022-08-17T22:00:15.636Z,19.02
2022-08-17T22:02:42.961Z,19.03
2022-08-17T22:05:14.120Z,19.05
2022-08-17T22:07:47.060Z,19.07
2022-08-17T22:10:43.743Z,19.08
2022-08-17T22:13:20.378Z,19.05
2022-08-17T22:15:50.674Z,19.00
2022-08-17T22:18:26.879Z,18.99
2022-08-17T22:20:56.484Z,19.03
2022-08-17T22:23:46.850Z,19.01
2022-08-17T22:26:15.527Z,19.01
2022-08-17T22:28:56.475Z,19.02
2022-08-17T22:31:26.243Z,19.01
2022-08-17T22:34:01.921Z,18.96
2022-08-17T22:36:41.170Z,18.94
2022-08-17T22:39:10.709Z,18.94
2022-08-17T22:41:59.350Z,18.98
2022-08-17T22:44:33.710Z,18.93
2022-08-17T22:47:02.375Z,18.91
2022-08-17T22:49:34.708Z,18.92
2022-08-17T22:52:04.559Z,18.86
2022-08-17T22:54:52.396Z,18.87
2022-08-17T22:57:40.668Z,18.89
2022-08-17T23:00:54.181Z,18.84
2022-08-17T23:03:26.312Z,18.76
2022-08-17T23:06:08.880Z,18.81
2022-08-17T23:08:48.803Z,18.81
2022-08-17T23:11:15.409Z,18.82
2022-08-17T23:13:41.965Z,18.77
2022-08-17T23:16:08.559Z,18.79
2022-08-17T23:18:35.691Z,18.81
2022-08-17T23:21:02.149Z,18.82
2022-08-17T23:23:29.742Z,18.78
2022-08-17T23:25:56.164Z,18.75
2022-08-17T23:28:22.699Z,18.79
2022-08-17T23:30:49.278Z,18.72
2022-08-17T23:33:26.768Z,18.70
2022-08-17T23:35:54.064Z,18.68
2022-08-17T23:38:20.616Z,18.71
2022-08-17T23:40:47.065Z,18.74
2022-08-17T23:43:23.665Z,18.72
2022-08-17T23:45:57.508Z,18.68
2022-08-17T23:48:28.417Z,18.67
2022-08-17T23:51:17.264Z,18.67
2022-08-17T23:53:48.102Z,18.64
2022-08-17T23:56:15.334Z,18.64
2022-08-17T23:58:44.704Z,18.64
